This is the latest recevied weather packets stored in our database for station/object DF7ER-12. If no packets are shown the sender has not sent any weather packets the latest 10 day(s).
| Time | Temp. | Humidity | Pressure | Rain* | Wind** | Luminosity | Snow |
|---|---|---|---|---|---|---|---|
| 1778240803 | 17.22° C | 64% | 1010.2 hPa | - | - | - | - |
| 1778240504 | 16.11° C | 64% | 1010.1 hPa | - | - | - | - |
| 1778240203 | 15.56° C | 65% | 1010.1 hPa | - | - | - | - |
| 1778239903 | 15.56° C | 64% | 1010.1 hPa | - | - | - | - |
| 1778239604 | 15° C | 67% | 1010.1 hPa | - | - | - | - |
| 1778239303 | 15.56° C | 65% | 1010.1 hPa | - | - | - | - |
| 1778239003 | 16.11° C | 65% | 1010.2 hPa | - | - | - | - |
| 1778238703 | 16.11° C | 65% | 1010.2 hPa | - | - | - | - |
| 1778238404 | 16.67° C | 65% | 1010.3 hPa | - | - | - | - |
| 1778238103 | 15° C | 67% | 1010.2 hPa | - | - | - | - |
| 1778237803 | 16.11° C | 65% | 1010.2 hPa | - | - | - | - |
| 1778237503 | 15.56° C | 66% | 1010.2 hPa | - | - | - | - |
| 1778237203 | 16.67° C | 64% | 1010.2 hPa | - | - | - | - |
| 1778236904 | 16.67° C | 65% | 1010.3 hPa | - | - | - | - |
| 1778236603 | 16.11° C | 67% | 1010.3 hPa | - | - | - | - |
| 1778236304 | 16.11° C | 65% | 1010.3 hPa | - | - | - | - |
| 1778236003 | 16.11° C | 66% | 1010.4 hPa | - | - | - | - |
| 1778235703 | 16.67° C | 66% | 1010.2 hPa | - | - | - | - |
| 1778235403 | 16.67° C | 66% | 1010.3 hPa | - | - | - | - |
| 1778235104 | 16.11° C | 68% | 1010.3 hPa | - | - | - | - |
| 1778234803 | 16.11° C | 69% | 1010.3 hPa | - | - | - | - |
| 1778234504 | 15.56° C | 68% | 1010.3 hPa | - | - | - | - |
| 1778234204 | 15.56° C | 68% | 1010.3 hPa | - | - | - | - |
| 1778233904 | 15.56° C | 69% | 1010.4 hPa | - | - | - | - |
| 1778233604 | 15° C | 69% | 1010.5 hPa | - | - | - | - |
* Rain since midnight (hover to see other rain measurements)
** Current wind speed in m/s (hover to see current wind gust speed)